Time;durP1;ratioP1;P1;durP2;ratioP2;P2;SDS_P1;SDS_P2;PMS_P1;PMS_P2;Temp;Humidity;BMP_temperature;BMP_pressure;BME280_temperature;BME280_humidity;BME280_pressure;Samples;Min_cycle;Max_cycle;Signal;HPM_P1;HPM_P2
2023/08/05 00:01:17;;;;;;;6.38;3.30;;;14.60;99.90;;;;;;4982692;28;20531;-81
2023/08/05 00:03:43;;;;;;;3.20;2.60;;;14.60;99.90;;;;;;4994706;28;20125;-82
2023/08/05 00:06:10;;;;;;;5.45;3.42;;;14.50;99.90;;;;;;4984746;28;20035;-81
2023/08/05 00:08:35;;;;;;;4.70;3.70;;;14.50;99.90;;;;;;4959403;28;20054;-81
2023/08/05 00:11:02;;;;;;;3.85;3.55;;;14.50;99.90;;;;;;4972800;28;20023;-83
2023/08/05 00:13:30;;;;;;;6.30;3.20;;;14.50;99.90;;;;;;4957498;28;20506;-82
2023/08/05 00:15:56;;;;;;;4.28;3.30;;;14.50;99.90;;;;;;4989909;28;20109;-80
2023/08/05 00:18:21;;;;;;;4.15;3.42;;;14.40;99.90;;;;;;4975076;28;20124;-81
2023/08/05 00:20:50;;;;;;;4.10;2.97;;;14.40;99.90;;;;;;4966541;28;20117;-81
2023/08/05 00:23:16;;;;;;;3.72;3.42;;;14.40;99.90;;;;;;4984280;28;20042;-84
2023/08/05 00:25:42;;;;;;;6.75;3.42;;;14.40;99.90;;;;;;4960044;28;20041;-83
2023/08/05 00:28:07;;;;;;;5.00;3.70;;;14.40;99.90;;;;;;4988148;28;20486;-84
2023/08/05 00:30:33;;;;;;;5.30;3.80;;;14.40;99.90;;;;;;4975702;28;20426;-84
2023/08/05 00:32:59;;;;;;;7.75;5.00;;;14.40;99.90;;;;;;4976674;28;20037;-85
2023/08/05 00:35:25;;;;;;;4.30;3.90;;;14.30;99.90;;;;;;4972003;28;20074;-81
2023/08/05 00:37:50;;;;;;;4.13;3.70;;;14.30;99.90;;;;;;4994525;28;20203;-83
2023/08/05 00:40:16;;;;;;;4.03;3.70;;;14.30;99.90;;;;;;4964155;28;20058;-82
2023/08/05 00:42:42;;;;;;;4.57;3.42;;;14.30;99.90;;;;;;4996880;28;20030;-83
2023/08/05 00:45:08;;;;;;;4.25;3.85;;;14.30;99.90;;;;;;4987794;28;20034;-84
2023/08/05 00:47:35;;;;;;;5.00;3.63;;;14.30;99.90;;;;;;4989959;28;20037;-82
2023/08/05 00:50:01;;;;;;;4.25;3.70;;;14.30;99.90;;;;;;4971815;28;20023;-80
2023/08/05 00:52:28;;;;;;;4.03;3.67;;;14.30;99.90;;;;;;4941121;28;20046;-83
2023/08/05 00:54:54;;;;;;;4.85;3.65;;;14.30;99.90;;;;;;4991202;28;20040;-82
2023/08/05 00:57:20;;;;;;;4.72;4.10;;;14.30;99.90;;;;;;4974800;28;20042;-79
2023/08/05 00:59:46;;;;;;;4.10;3.80;;;14.30;99.90;;;;;;4953324;28;20054;-81
2023/08/05 01:02:12;;;;;;;5.00;4.10;;;14.30;99.90;;;;;;4965120;28;20108;-81
2023/08/05 01:04:38;;;;;;;7.47;4.22;;;14.30;99.90;;;;;;4956349;28;20105;-81
2023/08/05 01:07:04;;;;;;;4.63;4.10;;;14.30;99.90;;;;;;4957304;28;20451;-81
2023/08/05 01:09:30;;;;;;;4.43;4.03;;;14.30;99.90;;;;;;4991796;28;20368;-85
2023/08/05 01:11:56;;;;;;;4.70;4.28;;;14.30;99.90;;;;;;4987008;28;20526;-79
2023/08/05 01:14:22;;;;;;;4.18;3.88;;;14.30;99.90;;;;;;4982210;28;20113;-81
2023/08/05 01:16:48;;;;;;;5.88;5.28;;;14.30;99.90;;;;;;4989721;28;20113;-81
2023/08/05 01:19:22;;;;;;;6.95;4.15;;;14.30;99.90;;;;;;4980809;28;20080;-82
2023/08/05 01:21:57;;;;;;;5.18;4.60;;;14.30;99.90;;;;;;4975974;28;20038;-81
2023/08/05 01:24:37;;;;;;;5.78;4.15;;;14.30;99.90;;;;;;4987350;28;20134;-82
2023/08/05 01:27:04;;;;;;;6.45;4.35;;;14.30;99.90;;;;;;4976094;28;20815;-80
2023/08/05 01:29:29;;;;;;;4.75;4.25;;;14.30;99.90;;;;;;4988111;28;20089;-81
2023/08/05 01:31:56;;;;;;;7.97;4.38;;;14.30;99.90;;;;;;4982922;28;20022;-81
2023/08/05 01:34:22;;;;;;;9.38;4.22;;;14.30;99.90;;;;;;4965048;28;20038;-83
2023/08/05 01:36:48;;;;;;;4.65;4.15;;;14.30;99.90;;;;;;4958098;28;20034;-84
2023/08/05 01:39:13;;;;;;;4.90;4.50;;;14.30;99.90;;;;;;4970084;28;20054;-81
2023/08/05 01:41:39;;;;;;;5.20;4.60;;;14.30;99.90;;;;;;4957852;28;20042;-80
2023/08/05 01:44:05;;;;;;;4.90;4.50;;;14.30;99.90;;;;;;4969504;28;20045;-80
2023/08/05 01:46:31;;;;;;;4.70;4.30;;;14.30;99.90;;;;;;4973246;28;20049;-82
2023/08/05 01:48:56;;;;;;;6.88;5.10;;;14.30;99.90;;;;;;4953569;28;20047;-83
2023/08/05 01:51:22;;;;;;;7.32;5.07;;;14.30;99.90;;;;;;4951889;28;20113;-83
2023/08/05 01:53:48;;;;;;;6.00;5.45;;;14.30;99.90;;;;;;4959082;28;20038;-82
2023/08/05 01:56:14;;;;;;;6.72;5.50;;;14.30;99.90;;;;;;4961678;28;20034;-82
2023/08/05 01:58:40;;;;;;;6.70;5.00;;;14.30;99.90;;;;;;4966823;28;20057;-85
2023/08/05 02:01:06;;;;;;;5.65;5.05;;;14.30;99.90;;;;;;4988704;28;20062;-82
2023/08/05 02:03:32;;;;;;;6.15;4.35;;;14.30;99.90;;;;;;4989072;28;20444;-83
2023/08/05 02:05:58;;;;;;;5.25;4.75;;;14.30;99.90;;;;;;4973591;28;20109;-84
2023/08/05 02:08:24;;;;;;;6.85;4.60;;;14.30;99.90;;;;;;4975822;28;20030;-84
2023/08/05 02:10:49;;;;;;;5.10;4.10;;;14.30;99.90;;;;;;4958496;28;20035;-81
2023/08/05 02:13:16;;;;;;;5.15;4.47;;;14.30;99.90;;;;;;4973311;28;20045;-83
2023/08/05 02:15:42;;;;;;;5.03;4.20;;;14.30;99.90;;;;;;4956604;28;20116;-85
2023/08/05 02:18:08;;;;;;;4.75;4.35;;;14.30;99.90;;;;;;4944538;28;20049;-83
2023/08/05 02:20:34;;;;;;;5.47;4.20;;;14.30;99.90;;;;;;4987961;28;20035;-81
2023/08/05 02:23:00;;;;;;;5.90;4.80;;;14.30;99.90;;;;;;4986078;28;20034;-82
2023/08/05 02:25:26;;;;;;;7.88;4.53;;;14.30;99.90;;;;;;4985059;28;20039;-80
2023/08/05 02:27:51;;;;;;;5.45;4.35;;;14.30;99.90;;;;;;4975635;28;20033;-82
2023/08/05 02:30:18;;;;;;;6.68;4.38;;;14.30;99.90;;;;;;4947916;28;20037;-82
2023/08/05 02:32:43;;;;;;;5.40;4.90;;;14.30;99.90;;;;;;4986596;28;20030;-84
2023/08/05 02:35:09;;;;;;;6.07;5.10;;;14.30;99.90;;;;;;4982846;28;20077;-81
2023/08/05 02:37:35;;;;;;;7.70;5.30;;;14.30;99.90;;;;;;4976719;28;20030;-84
2023/08/05 02:40:02;;;;;;;7.28;5.93;;;14.30;99.90;;;;;;4986327;28;20057;-81
2023/08/05 02:42:27;;;;;;;10.00;5.18;;;14.30;99.90;;;;;;4968579;28;20491;-85
2023/08/05 02:44:53;;;;;;;6.55;4.90;;;14.30;99.90;;;;;;4971763;28;20092;-81
2023/08/05 02:47:19;;;;;;;5.72;5.13;;;14.30;99.90;;;;;;4967600;28;20415;-85
2023/08/05 02:49:45;;;;;;;7.63;5.28;;;14.30;99.90;;;;;;4952888;28;20073;-81
2023/08/05 02:52:10;;;;;;;6.97;5.60;;;14.30;99.90;;;;;;4949737;28;20509;-81
2023/08/05 02:54:36;;;;;;;6.18;4.95;;;14.30;99.90;;;;;;4982785;28;20112;-82
2023/08/05 02:57:02;;;;;;;5.47;4.95;;;14.30;99.90;;;;;;4969796;28;20053;-84
2023/08/05 02:59:28;;;;;;;6.43;5.82;;;14.30;99.90;;;;;;4982400;28;20414;-81
2023/08/05 03:01:54;;;;;;;6.00;5.13;;;14.30;99.90;;;;;;4948520;28;20042;-82
2023/08/05 03:04:19;;;;;;;5.97;5.38;;;14.20;99.90;;;;;;4974612;28;20411;-83
2023/08/05 03:06:46;;;;;;;5.18;4.45;;;14.20;99.90;;;;;;4963336;28;20042;-81
2023/08/05 03:09:13;;;;;;;6.72;5.13;;;14.20;99.90;;;;;;4974560;28;20038;-82
2023/08/05 03:11:39;;;;;;;5.80;5.15;;;14.20;99.90;;;;;;4973089;28;20026;-82
2023/08/05 03:14:06;;;;;;;5.00;4.60;;;14.20;99.90;;;;;;4984165;28;20023;-83
2023/08/05 03:16:32;;;;;;;5.50;5.00;;;14.20;99.90;;;;;;4981738;28;20030;-84
2023/08/05 03:19:03;;;;;;;5.50;5.00;;;14.20;99.90;;;;;;4982518;28;20039;-83
2023/08/05 03:21:31;;;;;;;5.28;4.78;;;14.20;99.90;;;;;;4977577;28;20077;-83
2023/08/05 03:23:58;;;;;;;5.78;5.28;;;14.10;99.90;;;;;;4958730;28;20090;-83
2023/08/05 03:26:24;;;;;;;5.40;4.90;;;14.20;99.90;;;;;;4974791;28;20491;-83
2023/08/05 03:28:51;;;;;;;5.25;4.75;;;14.10;99.90;;;;;;4987392;28;20101;-81
2023/08/05 03:31:17;;;;;;;5.30;4.80;;;14.10;99.90;;;;;;4971910;28;20558;-83
2023/08/05 03:33:43;;;;;;;5.38;4.30;;;14.10;99.90;;;;;;4957617;28;20034;-81
2023/08/05 03:36:10;;;;;;;4.93;4.43;;;14.10;99.90;;;;;;4957565;28;20035;-81
2023/08/05 03:38:36;;;;;;;6.63;5.03;;;14.10;99.90;;;;;;4959215;28;20186;-81
2023/08/05 03:41:05;;;;;;;5.20;4.70;;;14.10;99.90;;;;;;4991501;28;20499;-83
2023/08/05 03:43:31;;;;;;;5.85;5.00;;;14.10;99.90;;;;;;4963051;28;20038;-86
2023/08/05 03:45:57;;;;;;;7.50;4.68;;;14.00;99.90;;;;;;4969022;28;20543;-82
2023/08/05 03:48:23;;;;;;;4.68;4.28;;;14.00;99.90;;;;;;4970999;28;20035;-85
2023/08/05 03:50:49;;;;;;;5.55;4.32;;;14.00;99.90;;;;;;4972440;28;20018;-83
2023/08/05 03:53:16;;;;;;;4.70;4.30;;;13.90;99.90;;;;;;4951062;28;20109;-83
2023/08/05 03:55:41;;;;;;;4.80;4.40;;;13.90;99.90;;;;;;4969225;28;20544;-83
2023/08/05 03:58:07;;;;;;;5.38;4.45;;;13.90;99.90;;;;;;4969145;28;20526;-83
2023/08/05 04:00:35;;;;;;;5.40;4.50;;;13.80;99.90;;;;;;4972303;28;20034;-83
2023/08/05 04:03:01;;;;;;;4.72;4.28;;;13.80;99.90;;;;;;4984789;28;20038;-81
2023/08/05 04:05:26;;;;;;;4.88;4.38;;;13.80;99.90;;;;;;4997604;28;20102;-84
2023/08/05 04:08:11;;;;;;;5.43;4.93;;;13.80;99.90;;;;;;4976089;28;20045;-84
2023/08/05 04:10:40;;;;;;;5.20;4.70;;;13.80;99.90;;;;;;4975726;28;20022;-83
2023/08/05 04:13:11;;;;;;;5.45;4.90;;;13.80;99.90;;;;;;4989819;28;20041;-84
2023/08/05 04:15:38;;;;;;;5.18;4.72;;;13.80;99.90;;;;;;4956477;28;20140;-83
2023/08/05 04:18:06;;;;;;;4.88;4.40;;;13.80;99.90;;;;;;4972040;28;20038;-81
2023/08/05 04:20:36;;;;;;;4.30;3.65;;;13.80;99.90;;;;;;4995635;28;20039;-84
2023/08/05 04:23:05;;;;;;;4.35;3.95;;;13.80;99.90;;;;;;4961364;28;20106;-83
2023/08/05 04:25:32;;;;;;;4.78;4.20;;;13.90;99.90;;;;;;4979692;28;20145;-82
2023/08/05 04:27:58;;;;;;;4.95;3.70;;;13.90;99.90;;;;;;4978777;28;20034;-81
2023/08/05 04:30:24;;;;;;;7.68;4.00;;;13.90;99.90;;;;;;4974759;28;20033;-84
2023/08/05 04:32:50;;;;;;;4.60;4.20;;;13.90;99.90;;;;;;4975889;28;20185;-83
2023/08/05 04:35:16;;;;;;;5.07;3.92;;;13.90;99.90;;;;;;4973324;28;20031;-82
2023/08/05 04:37:42;;;;;;;6.80;4.05;;;13.90;99.90;;;;;;4973618;28;20416;-84
2023/08/05 04:40:09;;;;;;;4.60;3.85;;;13.90;99.90;;;;;;4987222;28;20100;-82
2023/08/05 04:42:35;;;;;;;6.68;3.97;;;13.90;99.90;;;;;;4990406;28;20056;-83
2023/08/05 04:45:01;;;;;;;5.22;3.97;;;14.00;99.90;;;;;;4990569;28;20026;-82
2023/08/05 04:47:26;;;;;;;5.75;4.05;;;14.00;99.90;;;;;;4973730;28;20035;-82
2023/08/05 04:49:52;;;;;;;4.55;3.97;;;14.00;99.90;;;;;;4972287;28;20118;-81
2023/08/05 04:52:18;;;;;;;6.55;4.10;;;14.00;99.90;;;;;;4969812;28;20471;-83
2023/08/05 04:54:44;;;;;;;4.22;3.83;;;14.00;99.90;;;;;;4944205;28;20039;-85
2023/08/05 04:57:11;;;;;;;5.30;4.10;;;14.00;99.90;;;;;;4979456;28;20033;-83
2023/08/05 04:59:37;;;;;;;5.65;4.07;;;14.00;99.90;;;;;;4974225;28;20435;-84
2023/08/05 05:02:04;;;;;;;5.20;3.75;;;14.00;99.90;;;;;;4975634;28;20049;-85
2023/08/05 05:04:30;;;;;;;5.15;4.00;;;14.00;99.90;;;;;;4979860;28;20615;-84
2023/08/05 05:06:55;;;;;;;6.30;4.05;;;14.00;99.90;;;;;;4983297;28;20169;-83
2023/08/05 05:09:21;;;;;;;4.30;3.90;;;14.00;99.90;;;;;;4959906;28;20062;-82
2023/08/05 05:11:47;;;;;;;3.83;3.53;;;14.00;99.90;;;;;;4972973;28;20031;-83
2023/08/05 05:14:13;;;;;;;3.72;3.40;;;14.10;99.90;;;;;;4975240;28;20030;-87
2023/08/05 05:16:39;;;;;;;3.30;3.10;;;14.10;99.90;;;;;;4976667;28;20046;-82
2023/08/05 05:19:05;;;;;;;4.32;3.92;;;14.10;99.90;;;;;;4985063;28;20038;-83
2023/08/05 05:21:31;;;;;;;3.75;3.42;;;14.20;99.90;;;;;;4982873;28;20046;-82
2023/08/05 05:23:57;;;;;;;3.50;3.20;;;14.20;99.90;;;;;;4988764;28;20172;-84
2023/08/05 05:26:22;;;;;;;5.15;3.40;;;14.30;99.90;;;;;;4975614;28;20121;-83
2023/08/05 05:28:48;;;;;;;5.10;4.03;;;14.30;99.90;;;;;;4925464;28;20130;-84
2023/08/05 05:31:14;;;;;;;4.72;3.20;;;14.40;99.90;;;;;;4959317;28;20063;-83
2023/08/05 05:33:39;;;;;;;3.70;3.40;;;14.50;99.90;;;;;;4948727;28;20053;-84
2023/08/05 05:36:05;;;;;;;3.55;3.03;;;14.60;99.90;;;;;;4973798;28;20038;-81
2023/08/05 05:38:31;;;;;;;3.50;3.20;;;14.80;99.90;;;;;;4976803;28;20093;-85
2023/08/05 05:40:57;;;;;;;3.63;3.33;;;14.90;99.90;;;;;;4987793;28;20118;-84
2023/08/05 05:43:23;;;;;;;3.47;3.15;;;14.90;99.90;;;;;;4995598;28;20042;-84
2023/08/05 05:45:53;;;;;;;3.95;3.47;;;15.00;99.90;;;;;;4976543;28;20101;-85
2023/08/05 05:48:19;;;;;;;3.20;2.80;;;15.10;99.90;;;;;;4970864;28;20368;-84
2023/08/05 05:50:45;;;;;;;4.65;3.00;;;15.10;99.90;;;;;;4989275;28;20053;-84
2023/08/05 05:53:14;;;;;;;3.83;3.42;;;15.10;99.90;;;;;;4985311;28;20026;-84
2023/08/05 05:55:45;;;;;;;4.47;2.97;;;15.20;99.90;;;;;;4957545;28;20031;-84
2023/08/05 05:58:12;;;;;;;3.28;2.97;;;15.30;99.90;;;;;;4986667;28;20666;-82
2023/08/05 06:00:41;;;;;;;3.42;3.13;;;15.30;99.90;;;;;;4974822;28;20038;-83
2023/08/05 06:03:07;;;;;;;3.15;2.92;;;15.40;99.90;;;;;;4979261;28;20065;-85
2023/08/05 06:05:33;;;;;;;3.33;2.90;;;15.50;99.90;;;;;;4991773;28;20030;-84
2023/08/05 06:07:58;;;;;;;3.88;2.78;;;15.60;99.90;;;;;;4984231;28;20506;-82
2023/08/05 06:10:24;;;;;;;3.33;3.03;;;15.70;99.90;;;;;;4986292;28;20559;-84
2023/08/05 06:12:50;;;;;;;7.03;3.35;;;15.80;99.90;;;;;;4986311;28;20118;-83
2023/08/05 06:15:16;;;;;;;4.75;2.83;;;15.90;99.90;;;;;;4983378;28;20509;-82
2023/08/05 06:17:41;;;;;;;4.30;2.70;;;16.00;99.90;;;;;;4967866;28;20030;-83
2023/08/05 06:20:08;;;;;;;3.03;2.58;;;16.00;99.90;;;;;;4971103;28;20889;-81
2023/08/05 06:22:34;;;;;;;3.20;2.90;;;16.20;99.90;;;;;;4962371;28;20042;-81
2023/08/05 06:25:00;;;;;;;3.95;2.83;;;16.40;99.90;;;;;;4957701;28;20385;-82
2023/08/05 06:27:26;;;;;;;3.30;3.00;;;16.60;99.90;;;;;;4985279;28;20062;-83
2023/08/05 06:29:52;;;;;;;4.38;2.75;;;16.70;99.90;;;;;;4969635;28;20047;-83
2023/08/05 06:32:18;;;;;;;2.95;2.70;;;16.90;99.90;;;;;;4982158;28;20065;-82
2023/08/05 06:34:43;;;;;;;3.75;2.85;;;17.00;99.90;;;;;;4990552;28;20448;-82
2023/08/05 06:37:09;;;;;;;3.78;3.47;;;17.20;99.90;;;;;;4955712;28;20038;-84
2023/08/05 06:39:35;;;;;;;3.40;3.10;;;17.30;99.90;;;;;;4974312;28;20272;-86
2023/08/05 06:42:01;;;;;;;3.50;2.80;;;17.40;99.90;;;;;;4976147;28;20034;-82
2023/08/05 06:44:29;;;;;;;3.30;2.67;;;17.50;99.90;;;;;;4989260;28;20045;-83
2023/08/05 06:46:55;;;;;;;3.10;2.72;;;17.50;99.90;;;;;;4985771;28;20094;-85
2023/08/05 06:49:21;;;;;;;2.72;2.53;;;17.50;99.90;;;;;;4994709;28;20461;-79
2023/08/05 06:51:47;;;;;;;3.58;2.72;;;17.50;99.90;;;;;;4990687;28;20053;-82
2023/08/05 06:54:13;;;;;;;3.75;2.63;;;17.40;99.90;;;;;;4988203;28;20044;-81
2023/08/05 06:56:39;;;;;;;4.07;2.80;;;17.40;99.90;;;;;;4993666;28;20121;-81
2023/08/05 06:59:05;;;;;;;3.03;2.78;;;17.30;99.90;;;;;;4979125;28;20448;-84
2023/08/05 07:01:31;;;;;;;3.95;3.25;;;17.10;99.90;;;;;;4987062;28;20122;-82
2023/08/05 07:03:56;;;;;;;4.30;2.88;;;17.00;99.90;;;;;;4995741;28;20109;-83
2023/08/05 07:06:22;;;;;;;4.00;3.60;;;16.90;99.90;;;;;;4975419;28;20510;-83
2023/08/05 07:08:48;;;;;;;4.25;3.05;;;16.90;99.90;;;;;;4993682;28;20046;-84
2023/08/05 07:11:14;;;;;;;3.80;3.03;;;16.80;99.90;;;;;;4992248;28;20054;-81
2023/08/05 07:13:39;;;;;;;4.00;3.17;;;16.80;99.90;;;;;;4986583;28;20056;-83
2023/08/05 07:16:05;;;;;;;4.65;3.28;;;16.70;99.90;;;;;;4992719;28;20045;-85
2023/08/05 07:18:31;;;;;;;3.33;2.53;;;16.80;99.90;;;;;;4988750;28;20062;-81
2023/08/05 07:20:57;;;;;;;5.32;3.17;;;16.70;99.90;;;;;;4984210;28;20400;-84
2023/08/05 07:23:24;;;;;;;5.68;3.63;;;16.80;99.90;;;;;;4992159;28;20030;-82
2023/08/05 07:25:50;;;;;;;3.05;2.85;;;16.70;99.90;;;;;;4991052;28;20587;-83
2023/08/05 07:28:16;;;;;;;3.78;3.30;;;16.70;99.90;;;;;;4977292;28;20038;-81
2023/08/05 07:30:42;;;;;;;3.85;3.08;;;16.70;99.90;;;;;;4990622;28;20023;-82
2023/08/05 07:33:09;;;;;;;3.42;2.97;;;16.70;99.90;;;;;;4963490;28;20121;-82
2023/08/05 07:35:38;;;;;;;4.20;2.55;;;16.70;99.90;;;;;;4993809;28;20364;-83
2023/08/05 07:38:09;;;;;;;5.07;2.78;;;16.70;99.90;;;;;;4979473;28;20049;-79
2023/08/05 07:40:36;;;;;;;3.90;3.00;;;16.70;99.90;;;;;;4986592;28;20027;-81
2023/08/05 07:43:03;;;;;;;2.60;2.47;;;16.70;99.90;;;;;;4974325;28;20037;-82
2023/08/05 07:45:30;;;;;;;4.10;2.63;;;16.70;99.90;;;;;;4995091;28;20045;-82
2023/08/05 07:47:58;;;;;;;2.65;2.42;;;16.60;99.90;;;;;;4986576;28;20026;-82
2023/08/05 07:50:24;;;;;;;3.22;2.92;;;16.60;99.90;;;;;;4993269;28;20089;-82
2023/08/05 07:52:51;;;;;;;4.28;3.10;;;16.60;99.90;;;;;;4951673;28;20038;-84
2023/08/05 07:55:18;;;;;;;3.25;2.95;;;16.60;99.90;;;;;;4974227;28;20030;-82
2023/08/05 07:57:46;;;;;;;3.30;3.00;;;16.60;99.90;;;;;;4993909;28;20042;-77
2023/08/05 08:00:13;;;;;;;3.75;3.00;;;16.60;99.90;;;;;;4957137;28;20038;-82
2023/08/05 08:02:46;;;;;;;3.22;2.92;;;16.60;99.90;;;;;;4998662;28;20034;-81
2023/08/05 08:05:14;;;;;;;3.00;2.80;;;16.60;99.90;;;;;;4978981;28;20054;-82
2023/08/05 08:07:45;;;;;;;3.30;3.10;;;16.60;99.90;;;;;;4993269;28;20043;-81
2023/08/05 08:10:11;;;;;;;4.10;3.53;;;16.60;99.90;;;;;;4987031;28;20031;-80
2023/08/05 08:12:37;;;;;;;4.88;2.95;;;16.60;99.90;;;;;;4991374;28;20030;-83
2023/08/05 08:15:03;;;;;;;3.40;3.13;;;16.60;99.90;;;;;;4988911;28;20027;-80
2023/08/05 08:17:29;;;;;;;4.22;3.30;;;16.60;99.90;;;;;;4972305;28;20042;-83
2023/08/05 08:19:54;;;;;;;3.47;3.17;;;16.60;99.90;;;;;;4992997;28;20034;-83
2023/08/05 08:22:20;;;;;;;4.32;2.92;;;16.50;99.90;;;;;;4994579;28;20562;-84
2023/08/05 08:24:46;;;;;;;3.58;3.28;;;16.50;99.90;;;;;;4990952;28;20042;-83
2023/08/05 08:27:12;;;;;;;3.60;3.30;;;16.50;99.90;;;;;;4942622;28;20026;-79
2023/08/05 08:29:37;;;;;;;3.50;3.30;;;16.50;99.90;;;;;;4991622;28;20126;-79
2023/08/05 08:32:04;;;;;;;4.28;3.90;;;16.50;99.90;;;;;;4971789;28;20054;-81
2023/08/05 08:34:29;;;;;;;4.10;3.70;;;16.50;99.90;;;;;;4978587;28;20454;-82
2023/08/05 08:36:55;;;;;;;3.92;3.60;;;16.40;99.90;;;;;;4994265;28;20275;-78
2023/08/05 08:39:21;;;;;;;3.60;3.30;;;16.40;99.90;;;;;;4990227;28;20414;-82
2023/08/05 08:41:49;;;;;;;4.10;3.53;;;16.40;99.90;;;;;;4972985;28;20086;-80
2023/08/05 08:44:17;;;;;;;3.60;3.30;;;16.50;99.90;;;;;;4990264;28;20035;-81
2023/08/05 08:46:45;;;;;;;3.92;3.53;;;16.50;99.90;;;;;;4961586;28;20134;-81
2023/08/05 08:49:13;;;;;;;3.85;3.55;;;16.50;99.90;;;;;;4992707;28;20035;-84
2023/08/05 08:51:42;;;;;;;5.32;3.75;;;16.50;99.90;;;;;;4992665;28;20089;-82
2023/08/05 08:54:09;;;;;;;3.85;3.53;;;16.50;99.90;;;;;;4980781;28;20031;-83
2023/08/05 08:56:36;;;;;;;5.30;3.92;;;16.50;99.90;;;;;;4991757;28;20062;-83
2023/08/05 08:59:02;;;;;;;3.70;3.50;;;16.50;99.90;;;;;;4990737;28;20047;-83
2023/08/05 09:01:28;;;;;;;3.78;3.47;;;16.60;99.90;;;;;;4952934;28;20101;-80
2023/08/05 09:03:55;;;;;;;5.10;3.40;;;16.60;99.90;;;;;;4988231;28;20042;-87
2023/08/05 09:06:25;;;;;;;3.75;3.55;;;16.70;99.90;;;;;;4979121;28;20030;-80
2023/08/05 09:08:53;;;;;;;3.80;3.50;;;16.70;99.90;;;;;;4989050;28;20403;-83
2023/08/05 09:11:19;;;;;;;4.00;3.70;;;16.80;99.90;;;;;;4984570;28;20476;-83
2023/08/05 09:13:50;;;;;;;4.20;3.80;;;16.90;99.90;;;;;;4986841;28;20073;-86
2023/08/05 09:16:16;;;;;;;4.20;3.80;;;17.00;99.90;;;;;;4988644;28;20654;-81
2023/08/05 09:19:03;;;;;;;4.32;3.92;;;17.00;99.90;;;;;;4974714;28;20104;-82
2023/08/05 09:21:29;;;;;;;4.38;3.97;;;17.10;99.90;;;;;;4952480;28;20177;-82
2023/08/05 09:23:56;;;;;;;4.13;3.72;;;17.20;99.90;;;;;;4969261;28;20126;-80
2023/08/05 09:26:29;;;;;;;4.15;3.85;;;17.30;99.90;;;;;;4965926;28;20034;-83
2023/08/05 09:28:59;;;;;;;4.43;4.03;;;17.50;99.90;;;;;;4979381;28;20041;-82
2023/08/05 09:31:26;;;;;;;4.88;3.90;;;17.60;99.90;;;;;;4985121;28;20031;-82
2023/08/05 09:33:52;;;;;;;5.03;4.15;;;17.70;99.90;;;;;;4993698;28;20022;-82
2023/08/05 09:36:22;;;;;;;4.43;4.03;;;17.90;99.90;;;;;;4984477;28;20062;-79
2023/08/05 09:39:01;;;;;;;4.45;4.05;;;18.00;99.90;;;;;;4985046;28;20104;-81
2023/08/05 09:41:28;;;;;;;4.47;4.10;;;18.10;99.90;;;;;;4991474;28;20035;-82
2023/08/05 09:43:54;;;;;;;3.92;3.63;;;18.20;99.90;;;;;;4967852;28;20036;-84
2023/08/05 09:46:22;;;;;;;3.92;3.63;;;18.30;99.90;;;;;;4981816;28;20125;-83
2023/08/05 09:48:47;;;;;;;4.63;4.20;;;18.40;99.90;;;;;;4983063;28;20031;-84
2023/08/05 09:51:18;;;;;;;4.13;3.70;;;18.60;99.90;;;;;;4985479;28;20511;-80
2023/08/05 09:53:50;;;;;;;4.85;3.65;;;18.70;99.90;;;;;;4986675;28;20030;-83
2023/08/05 09:56:20;;;;;;;4.93;3.33;;;18.90;99.90;;;;;;4988118;28;20030;-81
2023/08/05 09:58:48;;;;;;;4.57;4.18;;;19.10;99.90;;;;;;4975561;28;20419;-81
2023/08/05 10:01:13;;;;;;;4.20;3.90;;;19.10;99.90;;;;;;4987088;28;20045;-82
2023/08/05 10:03:39;;;;;;;4.07;3.67;;;19.20;99.90;;;;;;4982136;28;20035;-81
2023/08/05 10:06:11;;;;;;;6.68;3.90;;;19.30;99.90;;;;;;4990549;28;20051;-79
2023/08/05 10:08:40;;;;;;;4.65;3.50;;;19.40;99.90;;;;;;4961692;28;20030;-80
2023/08/05 10:11:07;;;;;;;4.78;4.22;;;19.50;99.90;;;;;;4947835;28;20439;-80
2023/08/05 10:13:41;;;;;;;4.15;3.78;;;19.50;99.90;;;;;;4985103;28;20039;-83
2023/08/05 10:16:08;;;;;;;4.55;4.15;;;19.60;99.90;;;;;;4978492;28;20044;-83
2023/08/05 10:18:35;;;;;;;5.70;4.18;;;19.70;99.90;;;;;;4988665;28;20487;-83
2023/08/05 10:21:04;;;;;;;3.92;3.55;;;19.70;99.90;;;;;;4975558;28;20035;-83
2023/08/05 10:23:33;;;;;;;6.00;3.35;;;19.70;99.90;;;;;;4960534;28;20109;-84
2023/08/05 10:26:04;;;;;;;8.75;4.00;;;19.70;99.90;;;;;;4969175;28;20038;-83
2023/08/05 10:28:35;;;;;;;4.32;3.92;;;19.70;99.90;;;;;;4980599;28;20033;-86
2023/08/05 10:31:21;;;;;;;4.20;3.80;;;19.70;99.90;;;;;;4968238;28;20032;-80
2023/08/05 10:34:10;;;;;;;7.30;4.53;;;19.70;99.90;;;;;;4982246;28;20026;-81
2023/08/05 10:36:48;;;;;;;4.03;3.70;;;19.60;99.90;;;;;;4980433;28;20130;-77
2023/08/05 10:39:42;;;;;;;3.58;3.28;;;19.60;99.90;;;;;;4962271;28;20054;-79
2023/08/05 10:42:27;;;;;;;5.05;4.13;;;19.70;99.90;;;;;;4963510;28;20046;-82
2023/08/05 10:44:58;;;;;;;4.97;4.35;;;19.70;99.90;;;;;;4984698;28;20038;-80
2023/08/05 10:47:24;;;;;;;5.95;4.20;;;19.70;99.90;;;;;;4984484;28;21021;-81
2023/08/05 10:50:00;;;;;;;7.65;4.15;;;19.80;99.90;;;;;;4981956;28;20038;-84
2023/08/05 10:52:45;;;;;;;4.40;4.10;;;19.80;99.90;;;;;;4979310;28;20533;-83
2023/08/05 10:55:14;;;;;;;4.13;3.83;;;19.90;99.90;;;;;;4976243;28;20062;-81
2023/08/05 10:57:40;;;;;;;4.07;3.60;;;20.00;99.90;;;;;;4971277;28;20043;-85
2023/08/05 11:00:07;;;;;;;4.07;3.78;;;20.10;99.90;;;;;;4985242;28;20023;-80
2023/08/05 11:02:33;;;;;;;7.82;6.63;;;20.20;99.90;;;;;;4986730;28;20458;-81
2023/08/05 11:05:08;;;;;;;4.65;4.35;;;20.20;99.90;;;;;;4977882;28;20062;-83
2023/08/05 11:07:38;;;;;;;4.80;4.30;;;20.20;99.90;;;;;;4980526;28;20068;-83
2023/08/05 11:10:06;;;;;;;5.18;4.10;;;20.20;99.90;;;;;;4982389;28;20031;-81
2023/08/05 11:12:32;;;;;;;4.38;3.97;;;20.30;99.90;;;;;;4980966;28;20113;-85
2023/08/05 11:14:59;;;;;;;4.60;4.20;;;20.20;99.90;;;;;;4966197;28;20093;-79
2023/08/05 11:17:25;;;;;;;4.78;4.28;;;20.30;99.90;;;;;;4967043;28;20093;-83
2023/08/05 11:19:51;;;;;;;5.63;4.20;;;20.30;99.90;;;;;;4964488;28;20915;-80
2023/08/05 11:22:25;;;;;;;3.55;3.35;;;20.30;99.90;;;;;;4985849;28;20035;-80
2023/08/05 11:24:56;;;;;;;4.63;4.22;;;20.30;99.90;;;;;;4981149;28;20074;-79
2023/08/05 11:27:39;;;;;;;5.50;4.38;;;20.40;99.90;;;;;;4954132;28;20053;-81
2023/08/05 11:30:14;;;;;;;4.28;3.80;;;20.40;99.90;;;;;;4986032;28;20376;-82
2023/08/05 11:32:58;;;;;;;4.35;3.63;;;20.40;99.90;;;;;;4984524;28;20833;-81
2023/08/05 11:35:25;;;;;;;4.10;3.70;;;20.50;99.90;;;;;;4984083;28;20026;-82
2023/08/05 11:37:51;;;;;;;7.72;3.70;;;20.60;99.90;;;;;;4980324;28;20034;-79
2023/08/05 11:40:17;;;;;;;5.30;3.75;;;20.70;99.90;;;;;;4983904;28;20033;-79
2023/08/05 11:42:43;;;;;;;5.10;3.72;;;20.80;99.90;;;;;;4982178;28;20403;-81
2023/08/05 11:45:12;;;;;;;5.97;3.55;;;20.80;99.90;;;;;;4987000;28;20031;-79
2023/08/05 11:47:39;;;;;;;3.80;3.60;;;20.80;99.90;;;;;;4982005;28;20034;-81
2023/08/05 11:50:05;;;;;;;4.38;4.00;;;20.80;99.90;;;;;;4986341;28;20037;-81
2023/08/05 11:52:31;;;;;;;4.70;4.13;;;20.80;99.90;;;;;;4975254;28;20240;-78
2023/08/05 11:54:59;;;;;;;4.60;4.10;;;20.80;99.90;;;;;;4983284;28;20113;-82
2023/08/05 11:57:25;;;;;;;4.35;3.95;;;20.60;99.90;;;;;;4987676;28;20690;-82
2023/08/05 11:59:53;;;;;;;5.72;4.13;;;20.60;99.90;;;;;;4985141;28;20061;-81
2023/08/05 12:02:19;;;;;;;4.20;3.90;;;20.60;99.90;;;;;;4991024;28;20042;-76
2023/08/05 12:04:47;;;;;;;4.07;3.78;;;20.60;99.90;;;;;;4979742;28;20027;-78
2023/08/05 12:07:14;;;;;;;4.95;4.50;;;20.70;99.90;;;;;;4962711;28;20039;-81
2023/08/05 12:09:40;;;;;;;6.45;4.05;;;20.80;99.90;;;;;;4986000;28;20037;-84
2023/08/05 12:12:15;;;;;;;4.85;4.20;;;20.80;99.90;;;;;;4973173;28;20043;-79
2023/08/05 12:14:41;;;;;;;4.22;3.83;;;20.90;99.90;;;;;;4985680;28;20037;-81
2023/08/05 12:17:07;;;;;;;4.50;3.80;;;21.00;99.90;;;;;;4984399;28;20035;-83
2023/08/05 12:19:32;;;;;;;4.30;4.00;;;21.10;99.90;;;;;;4985336;28;20460;-79
2023/08/05 12:21:58;;;;;;;3.95;3.65;;;21.20;99.90;;;;;;4986123;28;20089;-82
2023/08/05 12:24:24;;;;;;;4.03;3.53;;;21.50;99.90;;;;;;4977435;28;20112;-79
2023/08/05 12:26:50;;;;;;;6.15;3.80;;;21.60;99.90;;;;;;4985523;28;20736;-76
2023/08/05 12:29:16;;;;;;;4.72;3.60;;;21.60;99.90;;;;;;4979884;28;20042;-79
2023/08/05 12:31:42;;;;;;;5.00;3.90;;;21.60;99.90;;;;;;4983822;28;20027;-79
2023/08/05 12:34:07;;;;;;;6.47;3.72;;;21.50;99.90;;;;;;4973384;28;20036;-82
2023/08/05 12:36:33;;;;;;;4.50;3.80;;;21.60;99.90;;;;;;4988356;28;20129;-82
2023/08/05 12:39:00;;;;;;;5.18;4.00;;;21.60;99.90;;;;;;4988719;28;20084;-79
2023/08/05 12:41:26;;;;;;;4.97;3.60;;;21.70;99.90;;;;;;4986253;28;20050;-81
2023/08/05 12:43:52;;;;;;;4.07;3.35;;;21.90;99.90;;;;;;4986825;28;20072;-80
2023/08/05 12:46:18;;;;;;;3.90;3.45;;;21.90;99.90;;;;;;4988674;28;20066;-82
2023/08/05 12:48:44;;;;;;;5.28;3.60;;;21.80;99.90;;;;;;4982409;28;20488;-82